Bedminster, New Jersey
Current Conditions -  °F | °C
As of 7:41 AM on Monday 22 Dec 2014 (Local Time) from KSMQ Reporting Station
Overcast Overcast  
Wind Chill: 34°   Ceiling: 1400
Heat Index: 34°   Visibility: 10mi
Dew Point: 29°   Wind: 0mph
Humidity: 82%   Direction: NA
Pressure: 30.31"   Gusts: NA
Location:  40.68°N, 74.64°W
Report Text: KSMQ 221241Z AUTO 00000KT 10SM OVC014 01/M02 A3031 RMK AO2 T00111017
Loading
Personal Weather Stations






























Interactive Weather Map New forecast layout! Learn more

10-Day Weather Forecast

Advertisements
Track Severe Weather on mobile